• Join FlightAware (Why Join?)
  • Login
  • US Flag 
01:50AM EDT


 

Airport Tracker/Info


-or-


 

Live Flight TrackerFlight Track Log ✈ CSZ9832 ✈ 10-Oct-2013 ✈ ZBAA / PEK - ZGSZ / SZX

Flight Track Log - Related Links

Times and Time Zones

All times are in EDT time to prevent confusion due to time zone crossing. See the CSZ9832 flight status page for this flight to view local times or setup timezone preferences in your user account.

Time Position Orientation Groundspeed Altitude Reporting Facility
EDT Latitude Longitude Course Direction KTS MPH feet Rate Location/Type
07:22AM 39.3187 116.4377 188° South  Level Estimated
07:23AM 39.2099 116.4169 188° South  Level Estimated
07:23AM 40.1970 116.2110 188° South 347 399 19,600  Level FlightAware
07:24AM 39.1011 116.3963 188° South  Level Estimated
07:24AM 40.1470 116.1230 233° Southwest 355 409 20,800  Level FlightAware
07:24AM 40.1080 116.0550 233° Southwest 367 422 23,200 2,400 Climbing FlightAware
07:25AM 40.0720 115.9930 233° Southwest 374 430 23,600 660 Climbing FlightAware
07:26AM 40.0350 115.9290 233° Southwest 380 437 24,000 1,380 Climbing FlightAware
07:26AM 40.0020 115.8730 232° Southwest 384 442 25,100 1,980 Climbing FlightAware
07:27AM 39.9690 115.8150 233° Southwest 390 449 26,000 1,800 Climbing FlightAware
07:27AM 39.9280 115.7440 233° Southwest 398 458 27,300 1,920 Climbing FlightAware
07:28AM 39.8830 115.6660 233° Southwest 399 459 28,600 1,260 Climbing FlightAware
07:29AM 39.8420 115.5960 233° Southwest 399 459 29,000 300 Climbing FlightAware
07:29AM 39.8080 115.5370 233° Southwest 399 459 29,000  Level FlightAware
07:30AM 39.7730 115.4770 233° Southwest 399 459 29,000  Level FlightAware
07:30AM 39.7390 115.4180 233° Southwest 399 459 29,000  Level FlightAware
07:31AM 39.7050 115.3590 233° Southwest 399 459 29,000  Level FlightAware
07:32AM 39.6710 115.3010 233° Southwest 399 459 29,000 60 Level FlightAware
07:34AM 39.4646 115.2791 185° South  Level Estimated
07:35AM 39.3550 115.2675 185° South  Level Estimated
07:36AM 39.2454 115.2560 185° South  Level Estimated
07:37AM 39.1358 115.2445 185° South  Level Estimated
07:38AM 39.0261 115.2330 185° South  Level Estimated
07:39AM 38.9165 115.2216 185° South  Level Estimated
07:40AM 38.8069 115.2102 185° South  Level Estimated
07:41AM 38.6973 115.1988 185° South  Level Estimated
07:42AM 38.5877 115.1875 185° South  Level Estimated
07:43AM 38.4781 115.1762 185° South  Level Estimated
07:44AM 38.3685 115.1649 185° South  Level Estimated
07:45AM 38.2589 115.1537 185° South  Level Estimated
07:46AM 38.1493 115.1425 185° South  Level Estimated
07:47AM 38.0396 115.1314 185° South  Level Estimated
07:48AM 37.9300 115.1202 185° South  Level Estimated
07:49AM 37.8204 115.1092 185° South  Level Estimated
07:50AM 37.7108 115.0981 185° South  Level Estimated
07:51AM 37.6012 115.0871 185° South  Level Estimated
07:52AM 37.4915 115.0761 185° South  Level Estimated
07:53AM 37.3819 115.0651 185° South  Level Estimated
07:54AM 37.2723 115.0542 185° South  Level Estimated
07:55AM 37.1627 115.0433 185° South  Level Estimated
07:56AM 37.0530 115.0324 185° South  Level Estimated
07:57AM 36.9434 115.0216 185° South  Level Estimated
07:58AM 36.8338 115.0108 185° South  Level Estimated
07:59AM 36.7241 115.0000 185° South  Level Estimated
08:00AM 36.6145 114.9893 184° South  Level Estimated
08:01AM 36.5049 114.9786 184° South  Level Estimated
08:02AM 36.3952 114.9679 184° South  Level Estimated
08:03AM 36.2856 114.9572 184° South  Level Estimated
08:04AM 36.1760 114.9466 184° South  Level Estimated
08:05AM 36.0663 114.9360 184° South  Level Estimated
08:06AM 35.9567 114.9255 184° South  Level Estimated
08:07AM 35.8471 114.9149 184° South  Level Estimated
08:08AM 35.7374 114.9044 184° South  Level Estimated
08:09AM 35.6278 114.8940 184° South  Level Estimated
08:10AM 35.5182 114.8835 184° South  Level Estimated
08:11AM 35.4085 114.8731 184° South  Level Estimated
08:12AM 35.2989 114.8627 184° South  Level Estimated
08:13AM 35.1892 114.8523 184° South  Level Estimated
08:14AM 35.0796 114.8420 184° South  Level Estimated
08:15AM 34.9700 114.8317 184° South  Level Estimated
08:15AM 33.9610 114.5820 184° South 475 547 34,100  Level FlightAware
08:16AM 33.8900 114.5760 184° South 473 544 34,100  Level FlightAware
08:16AM 33.8030 114.5680 184° South 471 542 34,100  Level FlightAware
08:17AM 33.7100 114.5590 185° South 468 539 34,100  Level FlightAware
08:18AM 33.6470 114.5520 185° South 467 537 34,100  Level FlightAware
08:18AM 33.5690 114.5450 184° South 465 535 34,100  Level FlightAware
08:19AM 33.4640 114.5350 185° South 464 534 34,100  Level FlightAware
08:20AM 33.4070 114.5290 185° South 461 531 34,100  Level FlightAware
08:20AM 33.3210 114.5210 184° South 461 531 34,100  Level FlightAware
08:21AM 33.2540 114.5150 184° South 459 528 34,100  Level FlightAware
08:21AM 33.1770 114.5070 185° South 461 531 34,100  Level FlightAware
08:22AM 33.0990 114.5000 184° South 462 532 34,100  Level FlightAware
08:22AM 33.0360 114.4940 185° South 462 532 34,100  Level FlightAware
08:23AM 33.0240 114.4930 184° South 461 531 34,100  Level FlightAware
08:24AM 32.9560 114.4850 186° South 461 531 34,100  Level FlightAware
08:24AM 32.8910 114.4790 184° South 461 531 34,100  Level FlightAware
08:25AM 32.8260 114.4720 185° South 461 531 34,100  Level FlightAware
08:26AM 32.7590 114.4650 185° South 461 531 34,100  Level FlightAware
08:26AM 32.6940 114.4580 185° South 461 531 34,100  Level FlightAware
08:27AM 32.4890 114.4410 184° South 467 537 34,100  Level FlightAware
08:27AM 32.4140 114.4340 185° South 466 536 34,100  Level FlightAware
08:28AM 32.3290 114.4260 185° South 465 535 34,100  Level FlightAware
08:28AM 32.2640 114.4200 184° South 464 534 34,100  Level FlightAware
08:29AM 32.1640 114.4110 184° South 459 528 34,100  Level FlightAware
08:30AM 32.0910 114.4040 185° South 458 527 34,100  Level FlightAware
08:30AM 32.0110 114.3960 185° South 455 524 34,100  Level FlightAware
08:31AM 31.9410 114.3890 185° South 453 521 34,100  Level FlightAware
08:32AM 31.8700 114.3830 184° South 451 519 34,100  Level FlightAware
08:32AM 31.8050 114.3770 184° South 449 517 34,100  Level FlightAware
08:33AM 31.7100 114.3680 185° South 448 516 34,100  Level FlightAware
08:34AM 31.6040 114.3580 185° South 448 516 34,100  Level FlightAware
08:34AM 31.5420 114.3520 185° South 448 516 34,100  Level FlightAware
08:35AM 31.4520 114.3430 185° South 453 521 34,100  Level FlightAware
08:36AM 31.3880 114.3370 185° South 453 521 34,100  Level FlightAware
08:36AM 31.3060 114.3130 194° South 455 524 34,100  Level FlightAware
08:36AM 31.2930 114.3060 205° Southwest 438 504 34,100  Level FlightAware
08:37AM 31.2300 114.2730 204° Southwest 438 504 34,100  Level FlightAware
08:38AM 31.1490 114.2310 204° Southwest 439 505 34,100  Level FlightAware
08:38AM 31.0720 114.1900 205° Southwest 439 505 34,100  Level FlightAware
08:39AM 30.9800 114.1420 204° Southwest 440 506 34,100  Level FlightAware
08:40AM 30.9200 114.1110 204° Southwest 440 506 34,100  Level FlightAware
08:40AM 30.9770 114.1400 24° Northeast 441 507 34,100  Level FlightAware
08:41AM 30.9200 114.1110 204° Southwest 441 507 34,100  Level FlightAware
08:42AM 30.8630 114.0810 204° Southwest 441 507 34,100  Level FlightAware
08:42AM 30.8060 114.0520 204° Southwest 441 507 34,100  Level FlightAware
08:43AM 30.7470 114.0210 204° Southwest 441 507 34,100  Level FlightAware
08:43AM 30.6900 113.9920 204° Southwest 441 507 34,100  Level FlightAware
08:44AM 30.6330 113.9620 204° Southwest 441 507 34,100  Level FlightAware
08:45AM 30.5760 113.9330 204° Southwest 441 507 34,100  Level FlightAware
08:45AM 30.5220 113.9050 204° Southwest 441 507 34,100  Level FlightAware
08:46AM 30.4650 113.8750 204° Southwest 441 507 34,100  Level FlightAware
08:46AM 30.4080 113.8460 204° Southwest 441 507 34,100  Level FlightAware
08:47AM 30.3510 113.8160 204° Southwest 441 507 34,100  Level FlightAware
08:48AM 30.2940 113.7870 204° Southwest 441 507 34,100  Level FlightAware
08:48AM 30.2370 113.7580 204° Southwest 441 507 34,100  Level FlightAware
08:49AM 30.1800 113.7280 204° Southwest 441 507 34,100  Level FlightAware
08:49AM 30.1230 113.6990 204° Southwest 441 507 34,100 -360 Level FlightAware
08:52AM 29.8811 113.7029 179° South  Level Estimated
08:53AM 29.7711 113.7047 179° South  Level Estimated
08:54AM 29.6612 113.7065 179° South  Level Estimated
08:55AM 29.5512 113.7082 179° South  Level Estimated
08:56AM 29.4412 113.7100 179° South  Level Estimated
08:57AM 29.3313 113.7117 179° South  Level Estimated
08:58AM 29.2213 113.7135 179° South  Level Estimated
08:59AM 29.1114 113.7152 179° South  Level Estimated
09:00AM 29.0014 113.7170 179° South  Level Estimated
09:01AM 28.8915 113.7187 179° South  Level Estimated
09:02AM 28.7815 113.7205 179° South  Level Estimated
09:03AM 28.6715 113.7222 179° South  Level Estimated
09:04AM 28.5616 113.7239 179° South  Level Estimated
09:05AM 28.4516 113.7256 179° South  Level Estimated
09:06AM 28.3417 113.7274 179° South  Level Estimated
09:07AM 28.2317 113.7291 179° South  Level Estimated
09:08AM 28.1217 113.7308 179° South  Level Estimated
09:09AM 28.0118 113.7325 179° South  Level Estimated
09:10AM 27.9018 113.7342 179° South  Level Estimated
09:11AM 27.7918 113.7359 179° South  Level Estimated
09:12AM 27.6819 113.7376 179° South  Level Estimated
09:13AM 27.5719 113.7393 179° South  Level Estimated
09:14AM 27.4620 113.7410 179° South  Level Estimated
09:15AM 27.3520 113.7427 179° South  Level Estimated
09:16AM 27.2421 113.7444 179° South  Level Estimated
09:17AM 27.1321 113.7461 179° South  Level Estimated
09:18AM 27.0221 113.7478 179° South  Level Estimated
09:19AM 26.9122 113.7495 179° South  Level Estimated
09:20AM 26.8022 113.7512 179° South  Level Estimated
09:21AM 26.6922 113.7528 179° South  Level Estimated
09:22AM 26.5823 113.7545 179° South  Level Estimated
09:23AM 26.4723 113.7562 179° South  Level Estimated
09:24AM 26.3624 113.7578 179° South  Level Estimated
09:25AM 26.2524 113.7595 179° South  Level Estimated
09:26AM 26.1425 113.7611 179° South  Level Estimated
09:27AM 26.0325 113.7628 179° South  Level Estimated
09:28AM 25.9225 113.7644 179° South  Level Estimated
09:29AM 25.8126 113.7661 179° South  Level Estimated
09:30AM 25.7026 113.7677 179° South  Level Estimated
09:31AM 25.5926 113.7694 179° South  Level Estimated
09:32AM 25.4827 113.7710 179° South  Level Estimated
09:33AM 25.3727 113.7727 179° South  Level Estimated
09:34AM 25.2628 113.7743 179° South  Level Estimated
09:35AM 25.1528 113.7759 179° South  Level Estimated
09:36AM 25.0429 113.7775 179° South  Level Estimated
09:37AM 24.9329 113.7792 179° South  Level Estimated
09:37AM 24.0870 113.9240 179° South 370 426 17,700  Level FlightAware
09:38AM 24.0710 113.9100 219° Southwest 370 426 17,700  Level FlightAware
09:38AM 24.0250 113.8650 222° Southwest 370 426 17,700  Level FlightAware
09:39AM 23.9800 113.8200 222° Southwest 370 426 17,700  Level FlightAware
09:39AM 23.9410 113.7820 222° Southwest 372 428 17,700 -360 Level FlightAware
09:40AM 23.8910 113.7330 222° Southwest 372 428 17,300 -780 Descending FlightAware
09:40AM 23.8500 113.6920 222° Southwest 373 429 16,800 -960 Descending FlightAware
09:41AM 23.8020 113.6460 221° Southwest 370 426 16,200 -960 Descending FlightAware
09:42AM 23.7580 113.6030 222° Southwest 368 423 15,700 -420 Descending FlightAware
09:42AM 23.7110 113.5570 222° Southwest 365 420 15,700  Level FlightAware
09:43AM 23.6720 113.5190 222° Southwest 366 421 15,700  Level FlightAware
09:43AM 23.6270 113.4750 222° Southwest 366 421 15,700  Level FlightAware
09:44AM 23.5790 113.4280 222° Southwest 365 420 15,700 -300 Level FlightAware
09:44AM 23.5390 113.3930 219° Southwest 366 421 15,400 -780 Descending FlightAware
09:45AM 23.5030 113.3730 207° Southwest 367 422 15,000 -1,020 Descending FlightAware
09:45AM 23.4500 113.3530 199° South 361 415 14,500 -1,020 Descending FlightAware
09:46AM 23.4000 113.3390 194° South 353 406 13,900 -660 Descending FlightAware
09:46AM 23.3480 113.3470 172° South 351 404 13,800 -300 Descending FlightAware
09:47AM 23.2920 113.3630 165° South 352 405 13,600 -720 Descending FlightAware
09:48AM 23.2350 113.3800 165° South 332 382 13,000 -960 Descending FlightAware
09:48AM 23.1890 113.3940 164° South 312 359 12,500 -1,200 Descending FlightAware
09:49AM 23.1420 113.4080 165° South 305 351 11,700 -1,380 Descending FlightAware
09:49AM 23.0900 113.4230 165° South 293 337 10,900 -780 Descending FlightAware
09:50AM 23.0460 113.4360 165° South 268 308 10,800 -540 Descending FlightAware
09:51AM 23.0070 113.4470 165° South 264 304 10,300 -1,140 Descending FlightAware
09:51AM 22.9810 113.4550 164° South 260 299 9,800 -1,200 Descending FlightAware
09:51AM 22.9660 113.4590 166° South 260 299 9,600 -1,260 Descending FlightAware
09:51AM 22.9410 113.4660 166° South 259 298 9,100 -1,320 Descending FlightAware
09:52AM 22.9140 113.4740 165° South 257 296 8,600 -1,260 Descending FlightAware
09:52AM 22.8910 113.4810 164° South 257 296 8,200 -1,200 Descending FlightAware
09:53AM 22.8670 113.4870 167° South 256 295 7,800 -1,140 Descending FlightAware
09:53AM 22.8520 113.4900 170° South 254 292 7,500 -720 Descending FlightAware
09:53AM 22.8260 113.4960 168° South 240 276 7,400 -600 Descending FlightAware
09:54AM 22.8030 113.5010 169° South 233 268 7,100 -840 Descending FlightAware
09:54AM 22.7870 113.5050 167° South 227 261 6,900 -600 Descending FlightAware
09:54AM 22.7710 113.5090 167° South 214 246 6,800 -480 Descending FlightAware
09:54AM 22.7480 113.5140 169° South 194 223 6,600 -540 Descending FlightAware
09:55AM 22.7310 113.5180 168° South 187 215 6,400 -960 Descending FlightAware
09:55AM 22.7270 113.5200 155° Southeast 185 213 6,200 -1,320 Descending FlightAware
09:55AM 22.7220 113.5250 137° Southeast 179 206 6,100 -840 Descending FlightAware
09:55AM 22.7190 113.5300 123° Southeast 176 203 6,000 -840 Descending FlightAware
09:55AM 22.7180 113.5370 99° East 171 197 5,900 -720 Descending FlightAware
09:56AM 22.7270 113.5570 64° Northeast 169 194 5,600 -600 Descending FlightAware
09:56AM 22.7290 113.5590 43° Northeast 169 194 5,600 -900 Level FlightAware
09:56AM 22.7370 113.5630 25° Northeast 170 196 5,400 -1,200 Descending FlightAware
09:56AM 22.7510 113.5710 28° Northeast 171 197 5,000 -1,140 Descending FlightAware
09:57AM 22.7680 113.5800 26° Northeast 169 194 4,600 -960 Descending FlightAware
09:57AM 22.7810 113.5890 33° Northeast 166 191 4,300 -1,080 Descending FlightAware
09:57AM 22.7920 113.6010 45° Northeast 165 190 3,900 -1,080 Descending FlightAware
09:58AM 22.8020 113.6140 50° Northeast 166 191 3,600 -960 Descending FlightAware
09:58AM 22.8070 113.6240 62° Northeast 167 192 3,400 -1,020 Descending FlightAware
09:58AM 22.8090 113.6370 81° East 169 194 3,100 -840 Descending FlightAware
09:59AM 22.8120 113.6550 80° East 170 196 2,900 -660 Descending FlightAware
09:59AM 22.8040 113.6760 112° Southeast 173 199 2,600 -720 Descending FlightAware
09:59AM 22.7970 113.6890 120° Southeast 174 200 2,400 -420 Descending FlightAware
10:00AM 22.7870 113.7080 120° Southeast 173 199 2,300 -180 Descending FlightAware
10:00AM 22.7790 113.7160 137° Southeast 176 203 2,300 -240 Level FlightAware
10:00AM 22.7650 113.7240 152° Southeast 175 201 2,200 -600 Descending FlightAware
10:01AM 22.7480 113.7340 152° Southeast 164 189 1,900 -780 Descending FlightAware
10:01AM 22.7420 113.7370 155° Southeast 162 186 1,800 -780 Descending FlightAware
10:01AM 22.7260 113.7460 153° Southeast 162 186 1,500 -840 Descending FlightAware
10:02AM 22.7140 113.7520 155° Southeast 159 183 1,200 -780 Descending FlightAware
10:02AM 22.7050 113.7570 153° Southeast 157 181 1,100 -840 Descending FlightAware
10:02AM 22.6880 113.7660 154° Southeast 152 175 700 -840 Descending FlightAware
10:02AM 22.6770 113.7720 153° Southeast 148 170 500 -840 Descending FlightAware
10:03AM 22.6650 113.7790 152° Southeast 146 168 200 -900 Descending FlightAware
10:03AM 22.6510 113.7870 152° Southeast 144 166 -480 Descending FlightAware
10:04AM 22.6410 113.7920 155° Southeast 86 99  Level FlightAware